sensor_id;sensor_type;location;lat;lon;timestamp;temperature;humidity
4245;DHT22;2136;48.502;9.194;2023-03-05T00:01:19;4.80;60.10
4245;DHT22;2136;48.502;9.194;2023-03-05T00:03:47;4.80;60.50
4245;DHT22;2136;48.502;9.194;2023-03-05T00:06:15;4.70;60.20
4245;DHT22;2136;48.502;9.194;2023-03-05T00:08:42;4.70;60.40
4245;DHT22;2136;48.502;9.194;2023-03-05T00:11:10;4.70;60.40
4245;DHT22;2136;48.502;9.194;2023-03-05T00:13:38;4.70;60.50
4245;DHT22;2136;48.502;9.194;2023-03-05T00:16:07;4.90;60.80
4245;DHT22;2136;48.502;9.194;2023-03-05T00:18:34;4.70;60.70
4245;DHT22;2136;48.502;9.194;2023-03-05T00:21:02;4.80;60.60
4245;DHT22;2136;48.502;9.194;2023-03-05T00:23:30;4.70;60.70
4245;DHT22;2136;48.502;9.194;2023-03-05T00:26:00;4.70;60.50
4245;DHT22;2136;48.502;9.194;2023-03-05T00:28:26;4.70;60.90
4245;DHT22;2136;48.502;9.194;2023-03-05T00:30:53;4.70;61.50
4245;DHT22;2136;48.502;9.194;2023-03-05T00:33:20;4.70;60.80
4245;DHT22;2136;48.502;9.194;2023-03-05T00:35:47;4.80;60.60
4245;DHT22;2136;48.502;9.194;2023-03-05T00:38:14;4.70;61.00
4245;DHT22;2136;48.502;9.194;2023-03-05T00:40:42;4.90;60.60
4245;DHT22;2136;48.502;9.194;2023-03-05T00:43:09;4.70;60.50
4245;DHT22;2136;48.502;9.194;2023-03-05T00:45:36;4.70;61.00
4245;DHT22;2136;48.502;9.194;2023-03-05T00:48:03;4.70;60.80
4245;DHT22;2136;48.502;9.194;2023-03-05T00:50:30;4.70;60.80
4245;DHT22;2136;48.502;9.194;2023-03-05T00:52:57;4.70;61.10
4245;DHT22;2136;48.502;9.194;2023-03-05T00:55:24;4.70;61.00
4245;DHT22;2136;48.502;9.194;2023-03-05T00:57:52;4.80;61.00
4245;DHT22;2136;48.502;9.194;2023-03-05T01:00:19;4.90;61.00
4245;DHT22;2136;48.502;9.194;2023-03-05T01:02:46;4.80;61.10
4245;DHT22;2136;48.502;9.194;2023-03-05T01:05:14;4.90;61.20
4245;DHT22;2136;48.502;9.194;2023-03-05T01:07:41;4.90;61.20
4245;DHT22;2136;48.502;9.194;2023-03-05T01:10:09;4.80;61.10
4245;DHT22;2136;48.502;9.194;2023-03-05T01:12:36;4.80;61.40
4245;DHT22;2136;48.502;9.194;2023-03-05T01:15:05;4.80;61.40
4245;DHT22;2136;48.502;9.194;2023-03-05T01:17:33;4.80;61.50
4245;DHT22;2136;48.502;9.194;2023-03-05T01:20:00;4.80;61.30
4245;DHT22;2136;48.502;9.194;2023-03-05T01:22:26;4.80;61.50
4245;DHT22;2136;48.502;9.194;2023-03-05T01:24:54;4.80;61.40
4245;DHT22;2136;48.502;9.194;2023-03-05T01:27:21;4.80;60.80
4245;DHT22;2136;48.502;9.194;2023-03-05T01:29:48;4.80;61.10
4245;DHT22;2136;48.502;9.194;2023-03-05T01:32:16;4.80;61.20
4245;DHT22;2136;48.502;9.194;2023-03-05T01:34:43;4.70;61.00
4245;DHT22;2136;48.502;9.194;2023-03-05T01:37:10;4.80;61.20
4245;DHT22;2136;48.502;9.194;2023-03-05T01:39:36;5.00;61.50
4245;DHT22;2136;48.502;9.194;2023-03-05T01:42:04;5.00;61.50
4245;DHT22;2136;48.502;9.194;2023-03-05T01:44:32;4.70;61.40
4245;DHT22;2136;48.502;9.194;2023-03-05T01:46:59;4.90;61.70
4245;DHT22;2136;48.502;9.194;2023-03-05T01:49:29;4.70;61.30
4245;DHT22;2136;48.502;9.194;2023-03-05T01:52:02;4.70;61.50
4245;DHT22;2136;48.502;9.194;2023-03-05T01:54:34;4.70;61.60
4245;DHT22;2136;48.502;9.194;2023-03-05T01:57:06;4.70;61.40
4245;DHT22;2136;48.502;9.194;2023-03-05T01:59:36;4.70;61.70
4245;DHT22;2136;48.502;9.194;2023-03-05T02:02:03;4.90;62.10
4245;DHT22;2136;48.502;9.194;2023-03-05T02:04:38;4.70;61.60
4245;DHT22;2136;48.502;9.194;2023-03-05T02:07:08;4.70;61.70
4245;DHT22;2136;48.502;9.194;2023-03-05T02:09:37;4.70;61.70
4245;DHT22;2136;48.502;9.194;2023-03-05T02:12:04;4.60;61.80
4245;DHT22;2136;48.502;9.194;2023-03-05T02:14:31;4.60;61.50
4245;DHT22;2136;48.502;9.194;2023-03-05T02:16:58;4.80;61.70
4245;DHT22;2136;48.502;9.194;2023-03-05T02:19:26;4.80;61.60
4245;DHT22;2136;48.502;9.194;2023-03-05T02:21:54;4.60;61.40
4245;DHT22;2136;48.502;9.194;2023-03-05T02:24:33;4.80;62.20
4245;DHT22;2136;48.502;9.194;2023-03-05T02:27:02;4.80;62.00
4245;DHT22;2136;48.502;9.194;2023-03-05T02:29:30;4.60;61.90
4245;DHT22;2136;48.502;9.194;2023-03-05T02:31:59;4.60;61.90
4245;DHT22;2136;48.502;9.194;2023-03-05T02:34:26;4.80;62.10
4245;DHT22;2136;48.502;9.194;2023-03-05T02:36:54;4.60;61.30
4245;DHT22;2136;48.502;9.194;2023-03-05T02:39:21;4.80;61.50
4245;DHT22;2136;48.502;9.194;2023-03-05T02:41:48;4.60;61.50
4245;DHT22;2136;48.502;9.194;2023-03-05T02:44:14;4.80;61.60
4245;DHT22;2136;48.502;9.194;2023-03-05T02:46:41;4.70;61.50
4245;DHT22;2136;48.502;9.194;2023-03-05T02:49:08;4.80;61.60
4245;DHT22;2136;48.502;9.194;2023-03-05T02:51:35;4.80;62.40
4245;DHT22;2136;48.502;9.194;2023-03-05T02:54:03;4.70;61.60
4245;DHT22;2136;48.502;9.194;2023-03-05T02:56:30;4.70;61.50
4245;DHT22;2136;48.502;9.194;2023-03-05T02:58:57;4.70;61.70
4245;DHT22;2136;48.502;9.194;2023-03-05T03:01:24;4.80;61.80
4245;DHT22;2136;48.502;9.194;2023-03-05T03:03:52;4.70;61.80
4245;DHT22;2136;48.502;9.194;2023-03-05T03:06:19;4.60;61.70
4245;DHT22;2136;48.502;9.194;2023-03-05T03:08:46;4.70;61.70
4245;DHT22;2136;48.502;9.194;2023-03-05T03:11:14;4.60;61.60
4245;DHT22;2136;48.502;9.194;2023-03-05T03:13:42;4.80;62.30
4245;DHT22;2136;48.502;9.194;2023-03-05T03:16:10;4.60;62.10
4245;DHT22;2136;48.502;9.194;2023-03-05T03:18:37;4.60;62.20
4245;DHT22;2136;48.502;9.194;2023-03-05T03:21:05;4.60;62.10
4245;DHT22;2136;48.502;9.194;2023-03-05T03:23:33;4.70;62.40
4245;DHT22;2136;48.502;9.194;2023-03-05T03:26:00;4.80;62.70
4245;DHT22;2136;48.502;9.194;2023-03-05T03:28:28;4.80;62.50
4245;DHT22;2136;48.502;9.194;2023-03-05T03:30:55;4.70;62.50
4245;DHT22;2136;48.502;9.194;2023-03-05T03:33:21;4.70;62.60
4245;DHT22;2136;48.502;9.194;2023-03-05T03:35:48;4.90;62.50
4245;DHT22;2136;48.502;9.194;2023-03-05T03:38:15;4.80;62.50
4245;DHT22;2136;48.502;9.194;2023-03-05T03:40:42;4.70;62.20
4245;DHT22;2136;48.502;9.194;2023-03-05T03:43:09;5.00;62.50
4245;DHT22;2136;48.502;9.194;2023-03-05T03:45:40;4.80;62.50
4245;DHT22;2136;48.502;9.194;2023-03-05T03:48:07;4.80;62.40
4245;DHT22;2136;48.502;9.194;2023-03-05T03:50:37;5.00;62.40
4245;DHT22;2136;48.502;9.194;2023-03-05T03:53:04;5.00;62.40
4245;DHT22;2136;48.502;9.194;2023-03-05T03:55:31;4.80;62.20
4245;DHT22;2136;48.502;9.194;2023-03-05T03:57:58;4.80;62.00
4245;DHT22;2136;48.502;9.194;2023-03-05T04:00:25;4.80;61.70
4245;DHT22;2136;48.502;9.194;2023-03-05T04:02:53;5.00;61.70
4245;DHT22;2136;48.502;9.194;2023-03-05T04:05:20;5.00;61.70
4245;DHT22;2136;48.502;9.194;2023-03-05T04:07:46;4.80;61.60
4245;DHT22;2136;48.502;9.194;2023-03-05T04:10:13;4.90;61.80
4245;DHT22;2136;48.502;9.194;2023-03-05T04:12:40;4.80;61.60
4245;DHT22;2136;48.502;9.194;2023-03-05T04:15:09;5.00;62.20
4245;DHT22;2136;48.502;9.194;2023-03-05T04:17:36;4.80;62.00
4245;DHT22;2136;48.502;9.194;2023-03-05T04:20:05;4.80;61.80
4245;DHT22;2136;48.502;9.194;2023-03-05T04:22:34;4.80;62.00
4245;DHT22;2136;48.502;9.194;2023-03-05T04:25:01;4.80;61.90
4245;DHT22;2136;48.502;9.194;2023-03-05T04:27:31;5.00;62.10
4245;DHT22;2136;48.502;9.194;2023-03-05T04:29:57;4.80;61.80
4245;DHT22;2136;48.502;9.194;2023-03-05T04:32:24;4.90;62.60
4245;DHT22;2136;48.502;9.194;2023-03-05T04:34:53;4.80;61.90
4245;DHT22;2136;48.502;9.194;2023-03-05T04:37:21;4.80;62.00
4245;DHT22;2136;48.502;9.194;2023-03-05T04:39:48;4.80;61.60
4245;DHT22;2136;48.502;9.194;2023-03-05T04:42:14;4.70;61.40
4245;DHT22;2136;48.502;9.194;2023-03-05T04:44:42;4.80;61.70
4245;DHT22;2136;48.502;9.194;2023-03-05T04:47:09;4.70;61.40
4245;DHT22;2136;48.502;9.194;2023-03-05T04:49:36;4.70;62.10
4245;DHT22;2136;48.502;9.194;2023-03-05T04:52:03;4.90;61.90
4245;DHT22;2136;48.502;9.194;2023-03-05T04:54:31;4.70;61.70
4245;DHT22;2136;48.502;9.194;2023-03-05T04:56:58;4.70;61.70
4245;DHT22;2136;48.502;9.194;2023-03-05T04:59:25;4.70;61.60
4245;DHT22;2136;48.502;9.194;2023-03-05T05:01:52;4.70;61.80
4245;DHT22;2136;48.502;9.194;2023-03-05T05:04:18;4.70;61.70
4245;DHT22;2136;48.502;9.194;2023-03-05T05:06:45;4.70;61.50
4245;DHT22;2136;48.502;9.194;2023-03-05T05:09:12;4.70;61.70
4245;DHT22;2136;48.502;9.194;2023-03-05T05:11:40;4.60;61.90
4245;DHT22;2136;48.502;9.194;2023-03-05T05:14:07;4.70;62.20
4245;DHT22;2136;48.502;9.194;2023-03-05T05:16:34;4.70;62.50
4245;DHT22;2136;48.502;9.194;2023-03-05T05:19:00;4.70;62.40
4245;DHT22;2136;48.502;9.194;2023-03-05T05:21:28;4.70;62.00
4245;DHT22;2136;48.502;9.194;2023-03-05T05:23:55;4.70;62.70
4245;DHT22;2136;48.502;9.194;2023-03-05T05:26:22;4.70;62.90
4245;DHT22;2136;48.502;9.194;2023-03-05T05:28:50;4.70;62.90
4245;DHT22;2136;48.502;9.194;2023-03-05T05:31:17;4.80;63.00
4245;DHT22;2136;48.502;9.194;2023-03-05T05:33:43;4.70;63.30
4245;DHT22;2136;48.502;9.194;2023-03-05T05:36:12;4.70;63.70
4245;DHT22;2136;48.502;9.194;2023-03-05T05:38:40;4.70;64.10
4245;DHT22;2136;48.502;9.194;2023-03-05T05:41:08;4.70;64.60
4245;DHT22;2136;48.502;9.194;2023-03-05T05:43:35;4.70;64.90
4245;DHT22;2136;48.502;9.194;2023-03-05T05:46:06;4.70;65.30
4245;DHT22;2136;48.502;9.194;2023-03-05T05:48:34;4.80;65.40
4245;DHT22;2136;48.502;9.194;2023-03-05T05:51:04;4.80;65.50
4245;DHT22;2136;48.502;9.194;2023-03-05T05:53:31;4.80;65.60
4245;DHT22;2136;48.502;9.194;2023-03-05T05:55:58;5.00;66.10
4245;DHT22;2136;48.502;9.194;2023-03-05T05:58:25;5.00;66.30
4245;DHT22;2136;48.502;9.194;2023-03-05T06:00:52;4.80;66.10
4245;DHT22;2136;48.502;9.194;2023-03-05T06:03:20;5.00;66.20
4245;DHT22;2136;48.502;9.194;2023-03-05T06:05:47;4.80;65.70
4245;DHT22;2136;48.502;9.194;2023-03-05T06:08:13;4.90;66.00
4245;DHT22;2136;48.502;9.194;2023-03-05T06:10:40;4.80;66.00
4245;DHT22;2136;48.502;9.194;2023-03-05T06:13:07;4.90;66.10
4245;DHT22;2136;48.502;9.194;2023-03-05T06:15:34;5.00;65.90
4245;DHT22;2136;48.502;9.194;2023-03-05T06:18:01;5.10;65.80
4245;DHT22;2136;48.502;9.194;2023-03-05T06:20:29;4.90;65.70
4245;DHT22;2136;48.502;9.194;2023-03-05T06:22:56;4.90;65.40
4245;DHT22;2136;48.502;9.194;2023-03-05T06:25:23;5.00;65.40
4245;DHT22;2136;48.502;9.194;2023-03-05T06:27:49;5.10;65.60
4245;DHT22;2136;48.502;9.194;2023-03-05T06:30:16;5.00;65.80
4245;DHT22;2136;48.502;9.194;2023-03-05T06:32:43;4.90;65.70
4245;DHT22;2136;48.502;9.194;2023-03-05T06:35:10;4.90;65.60
4245;DHT22;2136;48.502;9.194;2023-03-05T06:37:39;4.90;65.70
4245;DHT22;2136;48.502;9.194;2023-03-05T06:40:08;4.90;65.70
4245;DHT22;2136;48.502;9.194;2023-03-05T06:42:35;4.90;65.70
4245;DHT22;2136;48.502;9.194;2023-03-05T06:45:03;4.90;65.30
4245;DHT22;2136;48.502;9.194;2023-03-05T06:47:29;5.00;65.40
4245;DHT22;2136;48.502;9.194;2023-03-05T06:49:57;5.00;65.30
4245;DHT22;2136;48.502;9.194;2023-03-05T06:52:23;5.00;65.30
4245;DHT22;2136;48.502;9.194;2023-03-05T06:54:51;5.00;64.90
4245;DHT22;2136;48.502;9.194;2023-03-05T06:57:20;5.00;65.00
4245;DHT22;2136;48.502;9.194;2023-03-05T06:59:47;5.00;65.10
4245;DHT22;2136;48.502;9.194;2023-03-05T07:02:13;5.20;65.10
4245;DHT22;2136;48.502;9.194;2023-03-05T07:04:40;5.00;64.90
4245;DHT22;2136;48.502;9.194;2023-03-05T07:07:07;5.10;65.20
4245;DHT22;2136;48.502;9.194;2023-03-05T07:09:34;5.00;65.00
4245;DHT22;2136;48.502;9.194;2023-03-05T07:12:08;5.10;65.10
4245;DHT22;2136;48.502;9.194;2023-03-05T07:14:36;5.10;65.00
4245;DHT22;2136;48.502;9.194;2023-03-05T07:17:04;5.10;65.00
4245;DHT22;2136;48.502;9.194;2023-03-05T07:19:30;5.20;65.00
4245;DHT22;2136;48.502;9.194;2023-03-05T07:21:57;5.20;65.00
4245;DHT22;2136;48.502;9.194;2023-03-05T07:24:24;5.20;64.80
4245;DHT22;2136;48.502;9.194;2023-03-05T07:26:54;5.30;65.00
4245;DHT22;2136;48.502;9.194;2023-03-05T07:29:22;5.30;65.00
4245;DHT22;2136;48.502;9.194;2023-03-05T07:31:49;5.40;65.00
4245;DHT22;2136;48.502;9.194;2023-03-05T07:34:16;5.40;64.80
4245;DHT22;2136;48.502;9.194;2023-03-05T07:36:43;5.50;64.60
4245;DHT22;2136;48.502;9.194;2023-03-05T07:39:11;5.40;64.40
4245;DHT22;2136;48.502;9.194;2023-03-05T07:41:38;5.50;64.30
4245;DHT22;2136;48.502;9.194;2023-03-05T07:44:05;5.50;63.90
4245;DHT22;2136;48.502;9.194;2023-03-05T07:46:33;5.60;63.60
4245;DHT22;2136;48.502;9.194;2023-03-05T07:49:00;5.60;63.30
4245;DHT22;2136;48.502;9.194;2023-03-05T07:51:27;5.60;63.40
4245;DHT22;2136;48.502;9.194;2023-03-05T07:53:55;5.60;63.30
4245;DHT22;2136;48.502;9.194;2023-03-05T07:56:23;5.60;63.30
4245;DHT22;2136;48.502;9.194;2023-03-05T07:58:50;5.70;63.40
4245;DHT22;2136;48.502;9.194;2023-03-05T08:01:17;5.80;63.70
4245;DHT22;2136;48.502;9.194;2023-03-05T08:03:45;6.00;63.90
4245;DHT22;2136;48.502;9.194;2023-03-05T08:06:12;5.90;63.30
4245;DHT22;2136;48.502;9.194;2023-03-05T08:08:39;5.90;62.70
4245;DHT22;2136;48.502;9.194;2023-03-05T08:11:07;6.00;62.30
4245;DHT22;2136;48.502;9.194;2023-03-05T08:13:35;5.90;62.00
4245;DHT22;2136;48.502;9.194;2023-03-05T08:16:04;6.00;61.90
4245;DHT22;2136;48.502;9.194;2023-03-05T08:18:31;5.90;61.50
4245;DHT22;2136;48.502;9.194;2023-03-05T08:21:00;6.00;61.60
4245;DHT22;2136;48.502;9.194;2023-03-05T08:23:27;6.00;61.40
4245;DHT22;2136;48.502;9.194;2023-03-05T08:25:54;6.00;61.40
4245;DHT22;2136;48.502;9.194;2023-03-05T08:28:21;6.00;61.40
4245;DHT22;2136;48.502;9.194;2023-03-05T08:30:48;6.00;61.60
4245;DHT22;2136;48.502;9.194;2023-03-05T08:33:15;6.00;61.50
4245;DHT22;2136;48.502;9.194;2023-03-05T08:35:43;6.10;61.50
4245;DHT22;2136;48.502;9.194;2023-03-05T08:38:11;6.10;61.40
4245;DHT22;2136;48.502;9.194;2023-03-05T08:40:38;6.10;61.20
4245;DHT22;2136;48.502;9.194;2023-03-05T08:43:04;6.20;61.20
4245;DHT22;2136;48.502;9.194;2023-03-05T08:45:31;6.20;60.90
4245;DHT22;2136;48.502;9.194;2023-03-05T08:47:58;6.20;60.90
4245;DHT22;2136;48.502;9.194;2023-03-05T08:50:25;6.30;60.90
4245;DHT22;2136;48.502;9.194;2023-03-05T08:52:52;6.30;60.70
4245;DHT22;2136;48.502;9.194;2023-03-05T08:55:21;6.30;60.50
4245;DHT22;2136;48.502;9.194;2023-03-05T08:57:48;6.40;60.50
4245;DHT22;2136;48.502;9.194;2023-03-05T09:00:16;6.40;60.50
4245;DHT22;2136;48.502;9.194;2023-03-05T09:02:42;6.40;60.60
4245;DHT22;2136;48.502;9.194;2023-03-05T09:05:10;6.50;60.60
4245;DHT22;2136;48.502;9.194;2023-03-05T09:07:36;6.60;60.60
4245;DHT22;2136;48.502;9.194;2023-03-05T09:10:04;6.60;60.30
4245;DHT22;2136;48.502;9.194;2023-03-05T09:12:32;6.60;60.00
4245;DHT22;2136;48.502;9.194;2023-03-05T09:14:59;6.70;59.90
4245;DHT22;2136;48.502;9.194;2023-03-05T09:17:26;6.80;59.90
4245;DHT22;2136;48.502;9.194;2023-03-05T09:19:53;6.80;59.70
4245;DHT22;2136;48.502;9.194;2023-03-05T09:22:19;6.90;59.60
4245;DHT22;2136;48.502;9.194;2023-03-05T09:24:46;6.90;59.00
4245;DHT22;2136;48.502;9.194;2023-03-05T09:27:13;7.00;58.90
4245;DHT22;2136;48.502;9.194;2023-03-05T09:29:41;7.00;58.90
4245;DHT22;2136;48.502;9.194;2023-03-05T09:32:08;7.10;58.80
4245;DHT22;2136;48.502;9.194;2023-03-05T09:34:35;7.10;58.80
4245;DHT22;2136;48.502;9.194;2023-03-05T09:37:02;7.20;58.80
4245;DHT22;2136;48.502;9.194;2023-03-05T09:39:29;7.20;58.80
4245;DHT22;2136;48.502;9.194;2023-03-05T09:42:27;7.30;58.60
4245;DHT22;2136;48.502;9.194;2023-03-05T09:45:05;7.30;58.70
4245;DHT22;2136;48.502;9.194;2023-03-05T09:47:45;7.40;58.80
4245;DHT22;2136;48.502;9.194;2023-03-05T09:50:27;7.50;58.60
4245;DHT22;2136;48.502;9.194;2023-03-05T09:53:01;7.60;58.50
4245;DHT22;2136;48.502;9.194;2023-03-05T09:55:32;7.70;58.10
4245;DHT22;2136;48.502;9.194;2023-03-05T09:58:04;7.90;57.90
4245;DHT22;2136;48.502;9.194;2023-03-05T10:00:37;7.90;57.80
4245;DHT22;2136;48.502;9.194;2023-03-05T10:03:06;8.10;57.70
4245;DHT22;2136;48.502;9.194;2023-03-05T10:06:01;8.10;57.30
4245;DHT22;2136;48.502;9.194;2023-03-05T10:08:39;8.20;57.30
4245;DHT22;2136;48.502;9.194;2023-03-05T10:11:16;8.20;57.00
4245;DHT22;2136;48.502;9.194;2023-03-05T10:13:45;8.30;57.10
4245;DHT22;2136;48.502;9.194;2023-03-05T10:16:38;8.40;56.50
4245;DHT22;2136;48.502;9.194;2023-03-05T10:19:11;8.50;56.40
4245;DHT22;2136;48.502;9.194;2023-03-05T10:21:42;8.60;56.90
4245;DHT22;2136;48.502;9.194;2023-03-05T10:24:16;8.60;55.80
4245;DHT22;2136;48.502;9.194;2023-03-05T10:26:53;8.70;55.60
4245;DHT22;2136;48.502;9.194;2023-03-05T10:29:37;8.70;55.40
4245;DHT22;2136;48.502;9.194;2023-03-05T10:32:14;8.70;55.20
4245;DHT22;2136;48.502;9.194;2023-03-05T10:35:13;8.70;54.80
4245;DHT22;2136;48.502;9.194;2023-03-05T10:37:53;8.80;54.70
4245;DHT22;2136;48.502;9.194;2023-03-05T10:40:28;8.80;54.60
4245;DHT22;2136;48.502;9.194;2023-03-05T10:43:06;9.00;54.80
4245;DHT22;2136;48.502;9.194;2023-03-05T10:45:39;9.10;54.40
4245;DHT22;2136;48.502;9.194;2023-03-05T10:48:13;9.20;54.00
4245;DHT22;2136;48.502;9.194;2023-03-05T10:50:45;9.30;54.20
4245;DHT22;2136;48.502;9.194;2023-03-05T10:53:18;9.30;54.10
4245;DHT22;2136;48.502;9.194;2023-03-05T10:55:49;9.30;53.80
4245;DHT22;2136;48.502;9.194;2023-03-05T10:58:21;9.40;53.50
4245;DHT22;2136;48.502;9.194;2023-03-05T11:01:00;9.40;53.70
4245;DHT22;2136;48.502;9.194;2023-03-05T11:03:50;9.50;53.80
4245;DHT22;2136;48.502;9.194;2023-03-05T11:06:30;9.50;53.40
4245;DHT22;2136;48.502;9.194;2023-03-05T11:09:28;9.60;53.00
4245;DHT22;2136;48.502;9.194;2023-03-05T11:12:11;9.70;52.20
4245;DHT22;2136;48.502;9.194;2023-03-05T11:14:40;9.60;51.50
4245;DHT22;2136;48.502;9.194;2023-03-05T11:17:29;9.70;51.50
4245;DHT22;2136;48.502;9.194;2023-03-05T11:20:31;10.00;51.10
4245;DHT22;2136;48.502;9.194;2023-03-05T11:23:10;9.80;51.80
4245;DHT22;2136;48.502;9.194;2023-03-05T11:25:53;9.90;51.60
4245;DHT22;2136;48.502;9.194;2023-03-05T11:28:22;10.00;50.40
4245;DHT22;2136;48.502;9.194;2023-03-05T11:31:04;10.00;49.80
4245;DHT22;2136;48.502;9.194;2023-03-05T11:33:33;9.90;50.40
4245;DHT22;2136;48.502;9.194;2023-03-05T11:36:20;9.80;50.20
4245;DHT22;2136;48.502;9.194;2023-03-05T11:38:55;9.70;50.20
4245;DHT22;2136;48.502;9.194;2023-03-05T11:41:27;9.60;50.30
4245;DHT22;2136;48.502;9.194;2023-03-05T11:43:56;9.40;50.20
4245;DHT22;2136;48.502;9.194;2023-03-05T11:46:25;9.40;50.30
4245;DHT22;2136;48.502;9.194;2023-03-05T11:48:53;9.30;50.20
4245;DHT22;2136;48.502;9.194;2023-03-05T11:51:25;9.20;49.90
4245;DHT22;2136;48.502;9.194;2023-03-05T11:53:56;9.10;50.50
4245;DHT22;2136;48.502;9.194;2023-03-05T11:56:27;9.00;49.90
4245;DHT22;2136;48.502;9.194;2023-03-05T11:58:59;8.90;50.10
4245;DHT22;2136;48.502;9.194;2023-03-05T12:01:29;8.80;50.20
4245;DHT22;2136;48.502;9.194;2023-03-05T12:03:57;8.70;50.20
4245;DHT22;2136;48.502;9.194;2023-03-05T12:06:28;8.70;50.60
4245;DHT22;2136;48.502;9.194;2023-03-05T12:09:02;8.60;50.70
4245;DHT22;2136;48.502;9.194;2023-03-05T12:11:31;8.60;50.70
4245;DHT22;2136;48.502;9.194;2023-03-05T12:14:03;8.60;50.80
4245;DHT22;2136;48.502;9.194;2023-03-05T12:16:33;8.60;50.80
4245;DHT22;2136;48.502;9.194;2023-03-05T12:19:31;8.60;50.60
4245;DHT22;2136;48.502;9.194;2023-03-05T12:22:02;8.60;50.80
4245;DHT22;2136;48.502;9.194;2023-03-05T12:24:36;8.60;50.60
4245;DHT22;2136;48.502;9.194;2023-03-05T12:27:12;8.60;50.90
4245;DHT22;2136;48.502;9.194;2023-03-05T12:29:46;8.50;51.00
4245;DHT22;2136;48.502;9.194;2023-03-05T12:35:24;8.50;51.10
4245;DHT22;2136;48.502;9.194;2023-03-05T12:38:02;8.50;51.00
4245;DHT22;2136;48.502;9.194;2023-03-05T12:40:30;8.40;51.20
4245;DHT22;2136;48.502;9.194;2023-03-05T12:42:59;8.40;51.30
4245;DHT22;2136;48.502;9.194;2023-03-05T12:45:44;8.40;51.50
4245;DHT22;2136;48.502;9.194;2023-03-05T12:48:43;8.60;51.60
4245;DHT22;2136;48.502;9.194;2023-03-05T12:51:28;8.40;51.80
4245;DHT22;2136;48.502;9.194;2023-03-05T12:54:22;8.40;51.90
4245;DHT22;2136;48.502;9.194;2023-03-05T12:56:51;8.40;52.00
4245;DHT22;2136;48.502;9.194;2023-03-05T12:59:20;8.30;51.80
4245;DHT22;2136;48.502;9.194;2023-03-05T13:01:52;8.30;51.90
4245;DHT22;2136;48.502;9.194;2023-03-05T13:04:23;8.20;51.80
4245;DHT22;2136;48.502;9.194;2023-03-05T13:06:59;8.20;52.00
4245;DHT22;2136;48.502;9.194;2023-03-05T13:09:28;8.20;52.20
4245;DHT22;2136;48.502;9.194;2023-03-05T13:11:58;8.20;52.30
4245;DHT22;2136;48.502;9.194;2023-03-05T13:14:35;8.20;52.30
4245;DHT22;2136;48.502;9.194;2023-03-05T13:17:28;8.20;52.30
4245;DHT22;2136;48.502;9.194;2023-03-05T13:19:56;8.30;52.40
4245;DHT22;2136;48.502;9.194;2023-03-05T13:22:23;8.30;51.80
4245;DHT22;2136;48.502;9.194;2023-03-05T13:25:04;8.40;51.90
4245;DHT22;2136;48.502;9.194;2023-03-05T13:27:31;8.40;52.20
4245;DHT22;2136;48.502;9.194;2023-03-05T13:29:58;8.40;52.10
4245;DHT22;2136;48.502;9.194;2023-03-05T13:32:29;8.40;51.90
4245;DHT22;2136;48.502;9.194;2023-03-05T13:34:58;8.40;52.40
4245;DHT22;2136;48.502;9.194;2023-03-05T13:37:26;8.40;52.40
4245;DHT22;2136;48.502;9.194;2023-03-05T13:39:58;8.50;52.50
4245;DHT22;2136;48.502;9.194;2023-03-05T13:42:27;8.50;52.70
4245;DHT22;2136;48.502;9.194;2023-03-05T13:44:58;8.70;52.90
4245;DHT22;2136;48.502;9.194;2023-03-05T13:47:31;8.50;52.80
4245;DHT22;2136;48.502;9.194;2023-03-05T13:49:59;8.60;52.80
4245;DHT22;2136;48.502;9.194;2023-03-05T13:52:28;8.50;52.70
4245;DHT22;2136;48.502;9.194;2023-03-05T13:54:56;8.50;52.80
4245;DHT22;2136;48.502;9.194;2023-03-05T13:57:35;8.40;52.60
4245;DHT22;2136;48.502;9.194;2023-03-05T14:00:03;8.40;52.90
4245;DHT22;2136;48.502;9.194;2023-03-05T14:02:32;8.30;52.90
4245;DHT22;2136;48.502;9.194;2023-03-05T14:04:59;8.30;53.30
4245;DHT22;2136;48.502;9.194;2023-03-05T14:07:31;8.20;53.20
4245;DHT22;2136;48.502;9.194;2023-03-05T14:09:59;8.20;53.40
4245;DHT22;2136;48.502;9.194;2023-03-05T14:12:32;8.20;53.40
4245;DHT22;2136;48.502;9.194;2023-03-05T14:15:01;8.10;53.90
4245;DHT22;2136;48.502;9.194;2023-03-05T14:17:38;8.10;54.00
4245;DHT22;2136;48.502;9.194;2023-03-05T14:20:13;8.00;53.90
4245;DHT22;2136;48.502;9.194;2023-03-05T14:22:45;8.00;54.00
4245;DHT22;2136;48.502;9.194;2023-03-05T14:25:26;8.00;54.20
4245;DHT22;2136;48.502;9.194;2023-03-05T14:27:53;8.00;54.50
4245;DHT22;2136;48.502;9.194;2023-03-05T14:30:22;7.90;54.30
4245;DHT22;2136;48.502;9.194;2023-03-05T14:32:53;7.90;54.40
4245;DHT22;2136;48.502;9.194;2023-03-05T14:35:22;7.90;54.40
4245;DHT22;2136;48.502;9.194;2023-03-05T14:37:51;7.80;54.50
4245;DHT22;2136;48.502;9.194;2023-03-05T14:40:22;7.80;54.60
4245;DHT22;2136;48.502;9.194;2023-03-05T14:42:52;7.70;54.80
4245;DHT22;2136;48.502;9.194;2023-03-05T14:45:22;7.70;55.00
4245;DHT22;2136;48.502;9.194;2023-03-05T14:47:52;7.60;55.10
4245;DHT22;2136;48.502;9.194;2023-03-05T14:50:22;7.60;55.20
4245;DHT22;2136;48.502;9.194;2023-03-05T14:52:52;7.50;55.20
4245;DHT22;2136;48.502;9.194;2023-03-05T14:55:22;7.50;55.30
4245;DHT22;2136;48.502;9.194;2023-03-05T14:57:49;7.50;55.40
4245;DHT22;2136;48.502;9.194;2023-03-05T15:00:19;7.40;55.20
4245;DHT22;2136;48.502;9.194;2023-03-05T15:02:46;7.50;55.50
4245;DHT22;2136;48.502;9.194;2023-03-05T15:05:14;7.40;55.30
4245;DHT22;2136;48.502;9.194;2023-03-05T15:07:42;7.50;55.60
4245;DHT22;2136;48.502;9.194;2023-03-05T15:10:11;7.50;55.70
4245;DHT22;2136;48.502;9.194;2023-03-05T15:12:39;7.50;55.70
4245;DHT22;2136;48.502;9.194;2023-03-05T15:15:09;7.60;55.40
4245;DHT22;2136;48.502;9.194;2023-03-05T15:17:39;7.60;55.80
4245;DHT22;2136;48.502;9.194;2023-03-05T15:20:13;7.60;55.70
4245;DHT22;2136;48.502;9.194;2023-03-05T15:22:42;7.60;55.30
4245;DHT22;2136;48.502;9.194;2023-03-05T15:25:09;7.60;55.00
4245;DHT22;2136;48.502;9.194;2023-03-05T15:27:37;7.60;55.90
4245;DHT22;2136;48.502;9.194;2023-03-05T15:30:05;7.60;55.10
4245;DHT22;2136;48.502;9.194;2023-03-05T15:32:32;7.60;55.40
4245;DHT22;2136;48.502;9.194;2023-03-05T15:34:59;7.60;56.00
4245;DHT22;2136;48.502;9.194;2023-03-05T15:37:26;7.60;55.60
4245;DHT22;2136;48.502;9.194;2023-03-05T15:39:54;7.50;55.70
4245;DHT22;2136;48.502;9.194;2023-03-05T15:42:21;7.50;55.60
4245;DHT22;2136;48.502;9.194;2023-03-05T15:44:48;7.50;55.60
4245;DHT22;2136;48.502;9.194;2023-03-05T15:47:15;7.50;55.70
4245;DHT22;2136;48.502;9.194;2023-03-05T15:49:41;7.50;55.70
4245;DHT22;2136;48.502;9.194;2023-03-05T15:52:08;7.40;55.50
4245;DHT22;2136;48.502;9.194;2023-03-05T15:54:35;7.40;55.50
4245;DHT22;2136;48.502;9.194;2023-03-05T15:57:07;7.40;55.50
4245;DHT22;2136;48.502;9.194;2023-03-05T15:59:34;7.40;56.00
4245;DHT22;2136;48.502;9.194;2023-03-05T16:02:01;7.30;55.50
4245;DHT22;2136;48.502;9.194;2023-03-05T16:04:28;7.30;55.50
4245;DHT22;2136;48.502;9.194;2023-03-05T16:06:56;7.30;55.80
4245;DHT22;2136;48.502;9.194;2023-03-05T16:09:24;7.30;55.80
4245;DHT22;2136;48.502;9.194;2023-03-05T16:11:52;7.20;55.70
4245;DHT22;2136;48.502;9.194;2023-03-05T16:14:21;7.20;55.50
4245;DHT22;2136;48.502;9.194;2023-03-05T16:16:51;7.20;55.90
4245;DHT22;2136;48.502;9.194;2023-03-05T16:19:19;7.20;56.10
4245;DHT22;2136;48.502;9.194;2023-03-05T16:21:46;7.20;56.20
4245;DHT22;2136;48.502;9.194;2023-03-05T16:24:13;7.20;56.20
4245;DHT22;2136;48.502;9.194;2023-03-05T16:26:41;7.20;56.60
4245;DHT22;2136;48.502;9.194;2023-03-05T16:29:08;7.20;56.40
4245;DHT22;2136;48.502;9.194;2023-03-05T16:31:36;7.10;56.20
4245;DHT22;2136;48.502;9.194;2023-03-05T16:34:05;7.10;56.50
4245;DHT22;2136;48.502;9.194;2023-03-05T16:36:32;7.10;56.40